Time;durP1;ratioP1;P1;durP2;ratioP2;P2;SDS_P1;SDS_P2;PMS_P1;PMS_P2;Temp;Humidity;BMP_temperature;BMP_pressure;BME280_temperature;BME280_humidity;BME280_pressure;Samples;Min_cycle;Max_cycle;Signal;HPM_P1;HPM_P2
2023/01/15 00:01:54;;;;;;;1.60;0.60;;;7.40;99.90;;;;;;4942080;28;19952;-65
2023/01/15 00:04:21;;;;;;;1.20;0.68;;;7.40;99.90;;;;;;4942679;28;20097;-67
2023/01/15 00:06:49;;;;;;;;;;;7.40;99.90;;;;;;4943764;28;20513;-65
2023/01/15 00:09:16;;;;;;;2.08;0.60;;;7.40;99.90;;;;;;4944137;28;20159;-65
2023/01/15 00:11:42;;;;;;;1.85;1.08;;;7.40;99.90;;;;;;4944777;28;20308;-65
2023/01/15 00:14:09;;;;;;;1.48;0.60;;;7.40;99.90;;;;;;4943004;28;20042;-65
2023/01/15 00:16:39;;;;;;;;;;;7.40;99.90;;;;;;4960627;28;20330;-65
2023/01/15 00:19:09;;;;;;;1.25;0.80;;;7.40;99.90;;;;;;4945158;28;19925;-66
2023/01/15 00:21:36;;;;;;;4.45;1.10;;;7.50;99.90;;;;;;4943789;28;20057;-65
2023/01/15 00:29:33;;;;;;;0.50;0.50;;;7.60;99.90;;;;;;4945749;28;20109;-65
2023/01/15 00:32:04;;;;;;;;;;;7.60;99.90;;;;;;4927901;28;20294;-65
2023/01/15 00:34:32;;;;;;;1.38;0.70;;;7.60;99.90;;;;;;4933891;28;19965;-65
2023/01/15 00:36:59;;;;;;;0.93;0.80;;;7.50;99.90;;;;;;4939862;28;20058;-66
2023/01/15 00:39:27;;;;;;;1.00;0.52;;;7.50;99.90;;;;;;4945014;28;20046;-67
2023/01/15 00:41:54;;;;;;;0.80;0.73;;;7.40;99.90;;;;;;4941866;28;20367;-64
2023/01/15 00:44:21;;;;;;;1.95;0.85;;;7.40;99.90;;;;;;4943544;28;20034;-67
2023/01/15 00:46:50;;;;;;;0.93;0.70;;;7.30;99.90;;;;;;4942345;28;20445;-65
2023/01/15 00:49:20;;;;;;;1.42;0.95;;;7.30;99.90;;;;;;4941498;28;20062;-65
2023/01/15 00:51:48;;;;;;;1.30;0.98;;;7.30;99.90;;;;;;4957934;28;20077;-67
2023/01/15 00:54:16;;;;;;;3.78;0.93;;;7.20;99.90;;;;;;4957958;28;20353;-66
2023/01/15 00:56:43;;;;;;;3.85;1.05;;;7.20;99.90;;;;;;4939892;28;20436;-67
2023/01/15 00:59:10;;;;;;;2.25;1.20;;;7.10;99.90;;;;;;4958550;28;20042;-67
2023/01/15 01:01:37;;;;;;;3.95;0.88;;;7.10;99.90;;;;;;4947441;28;20047;-66
2023/01/15 01:04:04;;;;;;;2.40;0.75;;;7.10;99.90;;;;;;4945922;28;20051;-66
2023/01/15 01:06:33;;;;;;;1.20;0.88;;;7.10;99.90;;;;;;4948553;28;20047;-65
2023/01/15 01:09:01;;;;;;;9.27;2.17;;;7.10;99.90;;;;;;4937993;28;20042;-65
2023/01/15 01:11:32;;;;;;;1.52;0.95;;;7.10;99.90;;;;;;4957913;28;20038;-66
2023/01/15 01:14:01;;;;;;;1.20;0.60;;;7.10;99.90;;;;;;4961891;28;20051;-65
2023/01/15 01:16:36;;;;;;;0.60;0.60;;;7.10;99.90;;;;;;4959567;28;20105;-65
2023/01/15 01:19:14;;;;;;;2.42;1.10;;;7.10;99.90;;;;;;4960895;28;20050;-65
2023/01/15 01:21:42;;;;;;;2.10;1.08;;;7.20;99.90;;;;;;4948607;28;20046;-65
2023/01/15 01:24:11;;;;;;;1.75;0.98;;;7.10;99.90;;;;;;4963349;28;20212;-65
2023/01/15 01:26:38;;;;;;;1.52;1.05;;;7.10;99.90;;;;;;4946438;28;20393;-65
2023/01/15 01:29:05;;;;;;;1.88;0.40;;;7.10;99.90;;;;;;4944473;28;20043;-65
2023/01/15 01:31:32;;;;;;;1.52;0.90;;;7.10;99.90;;;;;;4948256;28;20510;-65
2023/01/15 01:33:59;;;;;;;1.90;0.80;;;7.10;99.90;;;;;;4947541;28;20136;-66
2023/01/15 01:36:30;;;;;;;1.27;0.60;;;7.10;99.90;;;;;;4962087;28;20052;-68
2023/01/15 01:38:57;;;;;;;3.25;1.20;;;7.10;99.90;;;;;;4944920;28;20070;-66
2023/01/15 01:41:25;;;;;;;2.65;1.25;;;7.10;99.90;;;;;;4945107;28;20820;-65
2023/01/15 01:43:59;;;;;;;3.65;1.52;;;7.10;99.90;;;;;;4931877;28;20798;-66
2023/01/15 01:46:28;;;;;;;3.55;1.27;;;7.10;99.90;;;;;;4962851;28;20038;-65
2023/01/15 01:49:11;;;;;;;1.17;0.88;;;7.00;99.90;;;;;;4935901;28;20074;-66
2023/01/15 01:51:42;;;;;;;2.35;1.20;;;7.00;99.90;;;;;;4944210;28;20062;-66
2023/01/15 01:54:12;;;;;;;8.50;0.98;;;7.00;99.90;;;;;;4951041;28;20389;-66
2023/01/15 01:56:39;;;;;;;1.52;0.50;;;6.90;99.90;;;;;;4944903;28;20058;-65
2023/01/15 01:59:08;;;;;;;0.65;0.65;;;6.90;99.90;;;;;;4942693;28;20464;-65
2023/01/15 02:01:34;;;;;;;0.73;0.63;;;6.90;99.90;;;;;;4925899;28;20050;-65
2023/01/15 02:04:05;;;;;;;0.77;0.57;;;6.90;99.90;;;;;;4946249;28;20320;-66
2023/01/15 02:06:33;;;;;;;1.38;0.57;;;6.90;99.90;;;;;;4947512;28;20358;-65
2023/01/15 02:09:01;;;;;;;0.55;0.50;;;6.90;99.90;;;;;;4960401;28;20050;-65
2023/01/15 02:11:28;;;;;;;;;;;6.80;99.90;;;;;;4961817;28;20630;-65
2023/01/15 02:14:18;;;;;;;1.52;0.70;;;6.80;99.90;;;;;;4943814;28;20020;-65
2023/01/15 02:16:57;;;;;;;0.68;0.55;;;6.80;99.90;;;;;;4941214;28;20536;-66
2023/01/15 02:19:35;;;;;;;5.15;0.65;;;6.80;99.90;;;;;;4958728;28;20047;-64
2023/01/15 02:22:01;;;;;;;;;;;6.80;99.90;;;;;;4944669;28;20239;-64
2023/01/15 02:24:53;;;;;;;4.03;1.00;;;6.70;99.90;;;;;;4943018;28;20131;-64
2023/01/15 02:27:22;;;;;;;0.98;0.65;;;6.70;99.90;;;;;;4940545;28;20069;-64
2023/01/15 02:29:55;;;;;;;0.93;0.65;;;6.60;99.90;;;;;;4928299;28;20273;-65
2023/01/15 02:32:50;;;;;;;2.70;1.00;;;6.60;99.90;;;;;;4944596;28;20043;-65
2023/01/15 02:35:29;;;;;;;1.30;0.40;;;6.60;99.90;;;;;;4924254;28;20040;-65
2023/01/15 02:38:00;;;;;;;2.85;0.70;;;6.60;99.90;;;;;;4942792;28;20074;-65
2023/01/15 02:40:27;;;;;;;2.00;0.65;;;6.60;99.90;;;;;;4958746;28;20798;-65
2023/01/15 02:42:56;;;;;;;2.15;0.77;;;6.60;99.90;;;;;;4936049;28;20059;-65
2023/01/15 02:45:28;;;;;;;2.30;0.70;;;6.60;99.90;;;;;;4941492;28;20106;-65
2023/01/15 02:48:07;;;;;;;0.60;0.60;;;6.60;99.90;;;;;;4959018;28;20089;-65
2023/01/15 02:50:42;;;;;;;0.65;0.57;;;6.60;99.90;;;;;;4958494;28;20046;-65
2023/01/15 02:53:14;;;;;;;0.50;0.50;;;6.60;99.90;;;;;;4957632;28;20847;-65
2023/01/15 02:55:45;;;;;;;1.17;0.88;;;6.60;99.90;;;;;;4958842;28;20460;-65
2023/01/15 02:58:19;;;;;;;2.08;0.63;;;6.60;99.90;;;;;;4960300;28;20138;-64
2023/01/15 03:00:50;;;;;;;0.60;0.60;;;6.60;99.90;;;;;;4958640;28;20047;-64
2023/01/15 03:03:36;;;;;;;1.90;0.52;;;6.60;99.90;;;;;;4943715;28;20129;-65
2023/01/15 03:06:11;;;;;;;0.40;0.40;;;6.60;99.90;;;;;;4960882;28;20054;-64
2023/01/15 03:08:39;;;;;;;0.60;0.60;;;6.60;99.90;;;;;;4944679;28;20691;-64
2023/01/15 03:11:10;;;;;;;1.88;0.75;;;6.60;99.90;;;;;;4960712;28;20834;-65
2023/01/15 03:13:42;;;;;;;0.60;0.60;;;6.60;99.90;;;;;;4958816;28;20062;-64
2023/01/15 03:16:36;;;;;;;0.40;0.40;;;6.60;99.90;;;;;;4942473;28;20273;-65
2023/01/15 03:19:04;;;;;;;0.55;0.55;;;6.60;99.90;;;;;;4944639;28;20272;-64
2023/01/15 03:22:08;;;;;;;0.90;0.60;;;6.60;99.90;;;;;;4959159;28;20447;-64
2023/01/15 03:24:46;;;;;;;0.85;0.70;;;6.60;99.90;;;;;;4941402;28;20121;-64
2023/01/15 03:27:17;;;;;;;1.13;0.70;;;6.60;99.90;;;;;;4926180;28;20232;-64
2023/01/15 03:29:53;;;;;;;0.55;0.40;;;6.60;99.90;;;;;;4961743;28;20052;-64
2023/01/15 03:32:21;;;;;;;0.73;0.57;;;6.60;99.90;;;;;;4927704;28;20078;-64
2023/01/15 03:34:54;;;;;;;0.57;0.50;;;6.60;99.90;;;;;;4943870;28;20077;-64
2023/01/15 03:37:24;;;;;;;2.70;0.75;;;6.60;99.90;;;;;;4936502;28;20082;-64
2023/01/15 03:39:55;;;;;;;1.52;0.80;;;6.60;99.90;;;;;;4944245;28;20524;-65
2023/01/15 03:43:39;;;;;;;2.15;0.85;;;6.60;99.90;;;;;;4942320;28;20050;-65
2023/01/15 03:45:47;;;;;;;1.33;0.80;;;6.60;99.90;;;;;;4936180;28;20089;-65
2023/01/15 03:48:38;;;;;;;1.55;0.75;;;6.60;99.90;;;;;;4957539;28;20355;-65
2023/01/15 03:51:20;;;;;;;2.65;1.17;;;6.70;99.90;;;;;;4945593;28;20240;-65
2023/01/15 03:53:53;;;;;;;0.70;0.60;;;6.70;99.90;;;;;;4956765;28;20042;-65
2023/01/15 03:56:43;;;;;;;0.82;0.70;;;6.70;99.90;;;;;;4942724;28;20256;-65
2023/01/15 03:59:17;;;;;;;4.85;1.40;;;6.70;99.90;;;;;;4944191;28;20043;-64
2023/01/15 04:01:57;;;;;;;1.00;0.60;;;6.70;99.90;;;;;;4958348;28;20070;-65
2023/01/15 04:04:26;;;;;;;3.80;1.17;;;6.70;99.90;;;;;;4938121;28;20383;-65
2023/01/15 04:06:54;;;;;;;2.50;0.90;;;6.80;99.90;;;;;;4925237;28;20038;-64
2023/01/15 04:09:22;;;;;;;1.70;0.90;;;6.80;99.90;;;;;;4942300;28;20062;-65
2023/01/15 04:11:52;;;;;;;2.28;0.82;;;6.90;99.90;;;;;;4958656;28;20051;-65
2023/01/15 04:14:18;;;;;;;;;;;6.90;99.90;;;;;;4942132;28;20558;-65
2023/01/15 04:16:49;;;;;;;0.55;0.50;;;7.00;99.90;;;;;;4955396;28;20334;-65
2023/01/15 04:19:16;;;;;;;1.80;0.70;;;7.10;99.90;;;;;;4940998;28;20106;-64
2023/01/15 04:21:50;;;;;;;1.55;0.40;;;7.40;99.90;;;;;;4957312;28;20868;-65
2023/01/15 04:24:17;;;;;;;;;;;7.80;99.90;;;;;;4958895;28;20150;-65
2023/01/15 04:26:44;;;;;;;0.52;0.40;;;8.30;99.90;;;;;;4940405;28;20788;-65
2023/01/15 04:29:11;;;;;;;1.20;0.40;;;8.70;99.90;;;;;;4939021;28;20775;-65
2023/01/15 04:31:38;;;;;;;;;;;9.10;99.90;;;;;;4942466;28;20051;-65
2023/01/15 04:34:04;;;;;;;0.80;0.40;;;9.30;99.90;;;;;;4940222;28;19929;-65
2023/01/15 04:36:34;;;;;;;;;;;9.50;99.90;;;;;;4943494;28;20281;-65
2023/01/15 04:39:02;;;;;;;0.22;0.22;;;9.60;99.90;;;;;;4938001;28;20008;-64
2023/01/15 04:44:15;;;;;;;0.70;0.38;;;9.60;99.90;;;;;;4957067;28;20050;-65
2023/01/15 04:46:43;;;;;;;;;;;9.50;99.90;;;;;;4956089;28;20181;-65
2023/01/15 04:49:15;;;;;;;0.57;0.32;;;9.40;99.90;;;;;;4943230;28;20387;-64
2023/01/15 04:51:43;;;;;;;3.40;0.40;;;9.20;99.90;;;;;;4943578;28;20277;-64
2023/01/15 04:54:13;;;;;;;0.40;0.40;;;9.10;99.90;;;;;;4939560;28;20748;-64
2023/01/15 04:56:46;;;;;;;2.63;0.52;;;8.90;99.90;;;;;;4940870;28;20313;-63
2023/01/15 04:59:14;;;;;;;1.65;0.38;;;8.80;99.90;;;;;;4943372;28;20097;-64
2023/01/15 05:01:41;;;;;;;1.77;0.60;;;8.60;99.90;;;;;;4940525;28;20494;-64
2023/01/15 05:04:24;;;;;;;1.00;0.40;;;8.50;99.90;;;;;;4945504;28;20506;-64
2023/01/15 05:06:52;;;;;;;1.85;0.40;;;8.30;99.90;;;;;;4941507;28;20113;-66
2023/01/15 05:09:19;;;;;;;0.75;0.38;;;8.10;99.90;;;;;;4942899;28;20121;-64
2023/01/15 05:11:45;;;;;;;;;;;8.00;99.90;;;;;;4942746;28;20039;-64
2023/01/15 05:14:12;;;;;;;2.40;0.50;;;7.90;99.90;;;;;;4943224;28;20187;-64
2023/01/15 05:16:39;;;;;;;;;;;7.80;99.90;;;;;;4941684;28;20053;-64
2023/01/15 05:19:08;;;;;;;0.47;0.30;;;7.70;99.90;;;;;;4943204;28;19925;-64
2023/01/15 05:21:40;;;;;;;1.65;0.63;;;7.70;99.90;;;;;;4943342;28;20133;-64
2023/01/15 05:24:11;;;;;;;0.65;0.43;;;7.70;99.90;;;;;;4945841;28;20105;-64
2023/01/15 05:26:38;;;;;;;0.47;0.20;;;7.70;99.90;;;;;;4944380;28;20050;-63
2023/01/15 05:29:05;;;;;;;0.32;0.17;;;7.80;99.90;;;;;;4942488;28;20047;-63
2023/01/15 05:31:35;;;;;;;;;;;7.80;99.90;;;;;;4944965;28;20267;-63
2023/01/15 05:34:01;;;;;;;0.35;0.35;;;7.90;99.90;;;;;;4957446;28;19932;-63
2023/01/15 05:36:30;;;;;;;0.98;0.60;;;8.00;99.90;;;;;;4943356;28;20138;-63
2023/01/15 05:39:00;;;;;;;0.47;0.30;;;8.00;99.90;;;;;;4941373;28;20519;-63
2023/01/15 05:44:22;;;;;;;1.15;0.75;;;8.10;99.90;;;;;;4943511;28;20709;-63
2023/01/15 05:46:52;;;;;;;3.30;0.25;;;8.20;99.90;;;;;;4943474;28;20509;-63
2023/01/15 05:49:21;;;;;;;0.30;0.30;;;8.30;99.90;;;;;;4945198;28;20790;-62
2023/01/15 05:51:49;;;;;;;0.88;0.30;;;8.30;99.90;;;;;;4947393;28;20064;-62
2023/01/15 05:54:21;;;;;;;1.60;0.50;;;8.30;99.90;;;;;;4946714;28;20408;-62
2023/01/15 05:56:49;;;;;;;1.35;0.50;;;8.20;99.90;;;;;;4958742;28;20061;-61
2023/01/15 05:59:17;;;;;;;0.90;0.40;;;8.20;99.90;;;;;;4945215;28;20042;-62
2023/01/15 06:01:44;;;;;;;0.75;0.40;;;8.20;99.90;;;;;;4944237;28;20092;-62
2023/01/15 06:04:16;;;;;;;;;;;8.20;99.90;;;;;;4949022;28;20144;-62
2023/01/15 06:06:43;;;;;;;0.32;0.30;;;8.20;99.90;;;;;;4948416;28;20148;-62
2023/01/15 06:09:10;;;;;;;0.57;0.30;;;8.30;99.90;;;;;;4951940;28;20038;-62
2023/01/15 06:11:37;;;;;;;0.25;0.20;;;8.40;99.90;;;;;;4945198;28;20141;-62
2023/01/15 06:14:04;;;;;;;1.15;0.80;;;8.50;99.90;;;;;;4945920;28;20591;-63
2023/01/15 06:16:31;;;;;;;0.28;0.28;;;8.60;99.90;;;;;;4945431;28;20042;-61
2023/01/15 06:19:03;;;;;;;1.23;0.20;;;8.60;99.90;;;;;;4946336;28;20046;-61
2023/01/15 06:21:31;;;;;;;0.20;0.20;;;8.60;99.90;;;;;;4945630;28;20126;-62
2023/01/15 06:23:58;;;;;;;0.38;0.38;;;8.70;99.90;;;;;;4945633;28;20046;-63
2023/01/15 06:26:26;;;;;;;0.30;0.30;;;8.70;99.90;;;;;;4946276;28;20745;-62
2023/01/15 06:28:53;;;;;;;0.65;0.40;;;8.70;99.90;;;;;;4935487;28;20069;-66
2023/01/15 06:31:20;;;;;;;;;;;8.70;99.90;;;;;;4945945;28;20041;-62
2023/01/15 06:33:47;;;;;;;0.20;0.20;;;8.70;99.90;;;;;;4945260;28;19958;-62
2023/01/15 06:36:16;;;;;;;0.20;0.20;;;8.70;99.90;;;;;;4946352;28;20047;-62
2023/01/15 06:38:43;;;;;;;0.57;0.30;;;8.80;99.90;;;;;;4927275;28;20051;-62
2023/01/15 06:49:35;;;;;;;4.70;0.55;;;9.00;99.90;;;;;;4944778;28;20047;-52
2023/01/15 06:52:03;;;;;;;1.05;0.22;;;9.10;99.90;;;;;;4946537;28;20474;-50
2023/01/15 06:54:31;;;;;;;1.48;0.30;;;9.10;99.90;;;;;;4928511;28;20395;-51
2023/01/15 06:56:57;;;;;;;2.47;0.40;;;9.10;99.90;;;;;;4940777;28;20998;-52
2023/01/15 06:59:24;;;;;;;0.30;0.30;;;9.20;99.90;;;;;;4945131;28;20258;-53
2023/01/15 07:01:51;;;;;;;;;;;9.30;99.90;;;;;;4944471;28;20045;-52
2023/01/15 07:04:18;;;;;;;0.73;0.27;;;9.30;99.90;;;;;;4944660;28;19925;-53
2023/01/15 07:06:45;;;;;;;0.20;0.20;;;9.40;99.90;;;;;;4944390;28;20125;-52
2023/01/15 07:09:12;;;;;;;0.30;0.20;;;9.40;99.90;;;;;;4936635;28;20422;-50
2023/01/15 07:11:50;;;;;;;;;;;9.40;99.90;;;;;;4945972;28;20047;-53
2023/01/15 07:14:22;;;;;;;0.28;0.20;;;9.40;99.90;;;;;;4941669;28;19926;-53
2023/01/15 07:16:50;;;;;;;0.22;0.22;;;9.50;99.90;;;;;;4944268;28;20038;-52
2023/01/15 07:19:18;;;;;;;0.20;0.20;;;9.50;99.90;;;;;;4945933;28;20043;-51
2023/01/15 07:21:45;;;;;;;0.20;0.20;;;9.50;99.90;;;;;;4943406;28;20057;-51
2023/01/15 07:24:13;;;;;;;0.17;0.17;;;9.40;99.90;;;;;;4944362;28;20041;-51
2023/01/15 07:26:41;;;;;;;0.20;0.20;;;9.40;99.90;;;;;;4944734;28;20042;-49
2023/01/15 07:29:08;;;;;;;0.30;0.30;;;9.30;99.90;;;;;;4944574;28;20909;-49
2023/01/15 07:31:35;;;;;;;0.65;0.30;;;9.30;99.90;;;;;;4943772;28;20540;-49
2023/01/15 07:34:02;;;;;;;0.50;0.22;;;9.20;99.90;;;;;;4945693;28;20752;-48
2023/01/15 07:36:29;;;;;;;0.80;0.20;;;9.10;99.90;;;;;;4958653;28;20221;-48
2023/01/15 07:38:56;;;;;;;0.30;0.20;;;9.10;99.90;;;;;;4941720;28;20594;-50
2023/01/15 07:49:45;;;;;;;0.90;0.28;;;8.90;99.90;;;;;;4944739;28;20038;-51
2023/01/15 07:52:13;;;;;;;0.38;0.38;;;8.80;99.90;;;;;;4944267;28;20186;-52
2023/01/15 07:54:39;;;;;;;2.67;0.35;;;8.80;99.90;;;;;;4946530;28;20053;-51
2023/01/15 07:57:06;;;;;;;;;;;8.70;99.90;;;;;;4940590;28;20046;-51
2023/01/15 07:59:33;;;;;;;0.32;0.32;;;8.60;99.90;;;;;;4943329;28;20387;-52
2023/01/15 08:02:00;;;;;;;0.20;0.20;;;8.60;99.90;;;;;;4943620;28;20054;-49
2023/01/15 08:04:27;;;;;;;2.55;0.40;;;8.60;99.90;;;;;;4944878;28;20050;-52
2023/01/15 08:06:54;;;;;;;0.65;0.40;;;8.60;99.90;;;;;;4942908;28;20566;-52
2023/01/15 08:09:20;;;;;;;0.40;0.30;;;8.50;99.90;;;;;;4941557;28;20475;-52
2023/01/15 08:17:18;;;;;;;0.20;0.20;;;8.70;99.90;;;;;;4943227;28;20232;-52
2023/01/15 08:19:45;;;;;;;;;;;8.80;99.90;;;;;;4943634;28;20245;-51
2023/01/15 08:22:11;;;;;;;0.40;0.40;;;8.90;99.90;;;;;;4943647;28;20237;-50
2023/01/15 08:24:38;;;;;;;1.92;0.85;;;9.00;99.90;;;;;;4942430;28;20105;-53
2023/01/15 08:27:05;;;;;;;;;;;9.00;99.90;;;;;;4943356;28;20422;-52
2023/01/15 08:29:31;;;;;;;1.45;1.10;;;9.10;99.90;;;;;;4944068;28;19936;-52
2023/01/15 08:31:58;;;;;;;1.70;1.15;;;9.10;99.90;;;;;;4942664;28;20053;-54
2023/01/15 08:34:28;;;;;;;6.80;0.90;;;9.10;99.90;;;;;;4942434;28;20707;-51
2023/01/15 08:36:58;;;;;;;;;;;9.20;99.90;;;;;;4943886;28;20048;-51
2023/01/15 08:39:28;;;;;;;4.13;0.52;;;9.20;99.90;;;;;;4944205;28;20281;-53
2023/01/15 08:41:55;;;;;;;0.40;0.40;;;9.20;99.90;;;;;;4942780;28;20330;-51
2023/01/15 08:44:23;;;;;;;0.63;0.40;;;9.30;99.90;;;;;;4941938;28;20219;-50
2023/01/15 08:46:51;;;;;;;1.17;0.20;;;9.40;99.90;;;;;;4941746;28;20455;-52
2023/01/15 08:49:19;;;;;;;0.40;0.40;;;9.50;99.90;;;;;;4945017;28;20334;-52
2023/01/15 08:51:50;;;;;;;0.38;0.30;;;9.70;99.90;;;;;;4943087;28;20532;-51
2023/01/15 08:54:18;;;;;;;0.32;0.28;;;9.80;99.90;;;;;;4942941;28;20053;-52
2023/01/15 08:56:46;;;;;;;0.38;0.38;;;9.90;99.90;;;;;;4941644;28;20058;-54
2023/01/15 08:59:13;;;;;;;0.95;0.30;;;9.90;99.90;;;;;;4941725;28;20381;-51
2023/01/15 09:01:40;;;;;;;;;;;10.00;99.90;;;;;;4945148;28;20125;-52
2023/01/15 09:04:12;;;;;;;0.17;0.17;;;10.10;99.90;;;;;;4943114;28;19937;-52
2023/01/15 09:06:39;;;;;;;0.60;0.20;;;10.10;99.90;;;;;;4940088;28;20060;-53
2023/01/15 09:09:06;;;;;;;;;;;10.20;99.90;;;;;;4944743;28;20536;-50
2023/01/15 09:11:32;;;;;;;0.73;0.50;;;10.20;99.90;;;;;;4944298;28;19936;-52
2023/01/15 09:13:59;;;;;;;;;;;10.20;99.90;;;;;;4944256;28;20045;-50
2023/01/15 09:16:26;;;;;;;1.20;0.55;;;10.30;99.90;;;;;;4942180;28;19926;-53
2023/01/15 09:18:53;;;;;;;0.80;0.68;;;10.20;99.90;;;;;;4934102;28;20046;-53
2023/01/15 09:21:20;;;;;;;;;;;10.10;99.90;;;;;;4946712;28;20046;-53
2023/01/15 09:23:47;;;;;;;2.45;0.70;;;10.00;99.90;;;;;;4947683;28;20379;-53
2023/01/15 09:26:27;;;;;;;;;;;9.80;99.90;;;;;;4947586;28;20039;-53
2023/01/15 09:28:55;;;;;;;1.65;0.30;;;9.70;99.90;;;;;;4944815;28;19932;-53
2023/01/15 09:31:23;;;;;;;0.30;0.30;;;9.40;99.90;;;;;;4947713;28;20042;-54
2023/01/15 09:33:50;;;;;;;0.52;0.30;;;9.00;99.90;;;;;;4946074;28;20048;-53
2023/01/15 09:36:21;;;;;;;0.20;0.20;;;8.70;99.90;;;;;;4946364;28;20039;-52
2023/01/15 09:38:49;;;;;;;0.30;0.20;;;8.40;99.90;;;;;;4927936;28;20125;-53
2023/01/15 09:44:20;;;;;;;0.20;0.20;;;8.00;99.90;;;;;;4947248;28;20026;-52
2023/01/15 09:47:10;;;;;;;0.28;0.28;;;7.70;99.90;;;;;;4945591;28;20046;-53
2023/01/15 09:49:59;;;;;;;0.32;0.30;;;7.50;99.90;;;;;;4927006;28;20479;-49
2023/01/15 09:52:45;;;;;;;0.20;0.20;;;7.40;99.90;;;;;;4937761;28;20039;-51
2023/01/15 09:55:16;;;;;;;0.88;0.15;;;7.10;99.90;;;;;;4947444;28;20689;-50
2023/01/15 09:57:45;;;;;;;0.22;0.10;;;6.90;99.90;;;;;;4942130;28;20050;-52
2023/01/15 10:00:18;;;;;;;0.20;0.20;;;6.80;99.90;;;;;;4945043;28;20064;-52
2023/01/15 10:02:46;;;;;;;0.20;0.20;;;6.60;99.90;;;;;;4929273;28;20180;-50
2023/01/15 10:05:29;;;;;;;0.20;0.20;;;6.50;99.90;;;;;;4943731;28;20436;-53
2023/01/15 10:08:11;;;;;;;0.98;0.30;;;6.30;99.90;;;;;;4945074;28;20177;-53
2023/01/15 10:10:48;;;;;;;0.32;0.10;;;6.30;99.90;;;;;;4944792;28;20109;-50
2023/01/15 10:13:49;;;;;;;1.00;0.20;;;6.20;99.90;;;;;;4945734;28;20042;-52
2023/01/15 10:16:25;;;;;;;0.20;0.20;;;6.00;99.90;;;;;;4943018;28;20662;-55
2023/01/15 10:18:53;;;;;;;0.00;0.00;;;5.90;99.90;;;;;;4943915;28;20535;-51
2023/01/15 10:21:29;;;;;;;0.28;0.28;;;5.80;99.90;;;;;;4948960;28;20497;-51
2023/01/15 10:24:05;;;;;;;0.10;0.10;;;5.70;99.90;;;;;;4945702;28;20034;-49
2023/01/15 10:26:54;;;;;;;0.13;0.13;;;5.50;99.90;;;;;;4945850;28;20398;-51
2023/01/15 10:29:40;;;;;;;0.20;0.20;;;5.50;99.90;;;;;;4961932;28;20051;-53
2023/01/15 10:32:13;;;;;;;0.20;0.20;;;5.40;99.90;;;;;;4943068;28;20054;-52
2023/01/15 10:35:07;;;;;;;0.20;0.20;;;5.40;99.90;;;;;;4959718;28;20047;-50
2023/01/15 10:37:51;;;;;;;1.23;0.20;;;5.30;99.90;;;;;;4935017;28;20031;-49
2023/01/15 10:41:02;;;;;;;0.43;0.30;;;5.30;99.90;;;;;;4946231;28;20051;-52
2023/01/15 10:44:06;;;;;;;0.40;0.20;;;5.30;99.90;;;;;;4944368;28;20046;-53
2023/01/15 10:46:37;;;;;;;0.10;0.10;;;5.20;99.90;;;;;;4946063;28;20328;-52
2023/01/15 10:49:15;;;;;;;0.47;0.40;;;5.10;99.90;;;;;;4943943;28;20270;-51
2023/01/15 10:51:52;;;;;;;0.85;0.20;;;5.00;99.90;;;;;;4945909;28;20319;-53
2023/01/15 10:54:30;;;;;;;0.30;0.30;;;4.90;99.90;;;;;;4943110;28;20309;-51
2023/01/15 10:57:10;;;;;;;0.20;0.20;;;4.80;99.90;;;;;;4945830;28;20889;-51
2023/01/15 10:59:57;;;;;;;0.28;0.28;;;4.70;99.90;;;;;;4959684;28;20128;-53
2023/01/15 11:02:33;;;;;;;0.68;0.40;;;4.60;99.90;;;;;;4944111;28;20348;-52
2023/01/15 11:05:01;;;;;;;0.75;0.43;;;4.50;99.90;;;;;;4946803;28;20599;-53
2023/01/15 11:07:38;;;;;;;0.10;0.10;;;4.40;99.90;;;;;;4944229;28;20042;-48
2023/01/15 11:10:19;;;;;;;0.20;0.20;;;4.40;99.90;;;;;;4927307;28;20552;-52
2023/01/15 11:21:29;;;;;;;0.20;0.20;;;4.00;99.90;;;;;;4943001;28;20049;-53
2023/01/15 11:23:58;;;;;;;0.30;0.30;;;4.00;99.90;;;;;;4945518;28;20605;-52
2023/01/15 11:26:31;;;;;;;0.10;0.10;;;4.00;99.90;;;;;;4944288;28;20395;-51
2023/01/15 11:29:00;;;;;;;0.30;0.30;;;3.90;99.90;;;;;;4942885;28;20111;-51
2023/01/15 11:31:36;;;;;;;0.20;0.20;;;3.80;99.90;;;;;;4942909;28;20046;-52
2023/01/15 11:34:05;;;;;;;1.75;0.20;;;3.70;99.90;;;;;;4942009;28;20035;-53
2023/01/15 11:36:33;;;;;;;3.70;0.20;;;3.60;99.90;;;;;;4960758;28;20407;-52
2023/01/15 11:39:00;;;;;;;0.50;0.20;;;3.60;99.90;;;;;;4926669;28;20667;-52
2023/01/15 11:52:47;;;;;;;3.20;0.30;;;3.40;99.90;;;;;;4943871;28;20046;-51
2023/01/15 11:55:20;;;;;;;0.30;0.30;;;3.40;99.90;;;;;;4943570;28;20304;-51
2023/01/15 11:57:49;;;;;;;2.50;0.77;;;3.30;99.90;;;;;;4940717;28;20042;-52
2023/01/15 12:00:29;;;;;;;2.60;0.30;;;3.30;99.90;;;;;;4942047;28;20050;-49
2023/01/15 12:03:17;;;;;;;1.60;0.22;;;3.30;99.90;;;;;;4955732;28;20424;-52
2023/01/15 12:05:58;;;;;;;0.40;0.35;;;3.20;99.90;;;;;;4934337;28;20065;-51
2023/01/15 12:08:44;;;;;;;0.40;0.40;;;3.20;99.90;;;;;;4945439;28;20050;-54
2023/01/15 12:11:56;;;;;;;0.50;0.40;;;3.20;99.90;;;;;;4943131;28;20102;-54
2023/01/15 12:14:34;;;;;;;0.30;0.30;;;3.20;99.90;;;;;;4930920;28;20046;-52
2023/01/15 12:17:34;;;;;;;0.20;0.20;;;3.20;99.90;;;;;;4943728;28;20129;-53
2023/01/15 12:20:28;;;;;;;0.20;0.20;;;3.20;99.90;;;;;;4943065;28;20249;-52
2023/01/15 12:23:24;;;;;;;0.20;0.20;;;3.10;99.90;;;;;;4943058;28;20387;-55
2023/01/15 12:26:23;;;;;;;1.17;0.30;;;2.90;99.90;;;;;;4941953;28;20458;-54
2023/01/15 12:28:57;;;;;;;1.95;0.40;;;2.90;99.90;;;;;;4941862;28;20046;-51
2023/01/15 12:31:33;;;;;;;0.90;0.40;;;2.80;99.90;;;;;;4943245;28;20070;-55
2023/01/15 12:34:13;;;;;;;0.40;0.40;;;2.70;99.90;;;;;;4943369;28;20793;-55
2023/01/15 12:36:46;;;;;;;0.68;0.47;;;2.50;99.90;;;;;;4943811;28;20224;-54
2023/01/15 12:39:29;;;;;;;0.40;0.40;;;2.50;99.90;;;;;;4928194;28;20870;-54
2023/01/15 12:45:00;;;;;;;0.40;0.40;;;2.40;99.90;;;;;;4943349;28;20043;-51
2023/01/15 12:47:50;;;;;;;0.40;0.40;;;2.40;99.90;;;;;;4944506;28;20058;-54
2023/01/15 12:50:43;;;;;;;1.92;0.43;;;2.30;99.90;;;;;;4945012;28;20878;-52
2023/01/15 12:53:16;;;;;;;0.30;0.30;;;2.40;99.90;;;;;;4943847;28;20061;-54
2023/01/15 12:56:06;;;;;;;0.50;0.50;;;2.40;99.90;;;;;;4947480;28;20487;-54
2023/01/15 12:58:57;;;;;;;0.32;0.30;;;2.40;99.90;;;;;;4945614;28;20598;-53
2023/01/15 13:01:45;;;;;;;3.22;1.05;;;2.40;99.90;;;;;;4960206;28;20049;-53
2023/01/15 13:04:24;;;;;;;0.60;0.60;;;2.40;99.90;;;;;;4945690;28;20038;-54
2023/01/15 13:06:56;;;;;;;0.68;0.40;;;2.40;99.90;;;;;;4944007;28;20050;-53
2023/01/15 13:09:46;;;;;;;0.32;0.30;;;2.40;99.90;;;;;;4947521;28;20125;-51
2023/01/15 13:12:15;;;;;;;0.40;0.40;;;2.40;99.90;;;;;;4947881;28;20082;-53
2023/01/15 13:14:42;;;;;;;0.20;0.20;;;2.40;99.90;;;;;;4934933;28;20268;-52
2023/01/15 13:17:21;;;;;;;0.93;0.35;;;2.40;99.90;;;;;;4947863;28;20655;-50
2023/01/15 13:20:12;;;;;;;0.40;0.40;;;2.40;99.90;;;;;;4948834;28;20269;-53
2023/01/15 13:22:56;;;;;;;0.80;0.40;;;2.40;99.90;;;;;;4947408;28;20084;-51
2023/01/15 13:25:49;;;;;;;0.30;0.30;;;2.30;99.90;;;;;;4962832;28;20324;-52
2023/01/15 13:28:40;;;;;;;0.40;0.40;;;2.30;99.90;;;;;;4947897;28;20051;-53
2023/01/15 13:31:29;;;;;;;0.28;0.22;;;2.30;99.90;;;;;;4946107;28;20046;-52
2023/01/15 13:34:00;;;;;;;0.20;0.20;;;2.30;99.90;;;;;;4946084;28;20118;-54
2023/01/15 13:36:39;;;;;;;0.63;0.60;;;2.30;99.90;;;;;;4949379;28;20057;-53
2023/01/15 13:39:15;;;;;;;0.47;0.20;;;2.20;99.90;;;;;;4962024;28;20167;-52
2023/01/15 13:44:37;;;;;;;2.00;0.50;;;2.20;99.90;;;;;;4939161;28;20057;-61
2023/01/15 13:47:17;;;;;;;0.95;0.50;;;2.20;99.90;;;;;;4945514;28;20488;-51
2023/01/15 13:49:51;;;;;;;0.32;0.32;;;2.10;99.90;;;;;;4946799;28;20084;-58
2023/01/15 13:52:28;;;;;;;1.35;0.52;;;2.20;99.90;;;;;;4929461;28;20039;-54
2023/01/15 13:54:58;;;;;;;;;;;2.10;99.90;;;;;;4939382;28;20141;-55
2023/01/15 13:57:39;;;;;;;0.57;0.40;;;2.10;99.90;;;;;;4932392;28;20431;-54
2023/01/15 14:00:25;;;;;;;1.58;0.50;;;2.20;99.90;;;;;;4954064;28;20054;-50
2023/01/15 14:02:54;;;;;;;0.40;0.40;;;2.20;99.90;;;;;;4937582;28;20047;-52
2023/01/15 14:05:35;;;;;;;2.75;0.38;;;2.10;99.90;;;;;;4929773;28;20483;-58
2023/01/15 14:08:15;;;;;;;0.38;0.22;;;2.20;99.90;;;;;;4944398;28;20046;-53
2023/01/15 14:10:42;;;;;;;0.40;0.40;;;2.20;99.90;;;;;;4946885;28;20122;-51
2023/01/15 14:13:09;;;;;;;0.47;0.43;;;2.20;99.90;;;;;;4947791;28;20119;-52
2023/01/15 14:16:15;;;;;;;1.35;0.30;;;2.20;99.90;;;;;;4947065;28;20576;-52
2023/01/15 14:19:01;;;;;;;0.20;0.20;;;2.20;99.90;;;;;;4945391;28;20976;-53
2023/01/15 14:21:39;;;;;;;1.83;0.35;;;2.30;99.90;;;;;;4938359;28;20042;-52
2023/01/15 14:24:30;;;;;;;1.85;0.20;;;2.30;99.90;;;;;;4946749;28;20403;-52
2023/01/15 14:27:16;;;;;;;2.75;0.38;;;2.30;99.90;;;;;;4945779;28;20109;-53
2023/01/15 14:29:58;;;;;;;0.20;0.20;;;2.30;99.90;;;;;;4946867;28;20058;-53
2023/01/15 14:33:15;;;;;;;1.23;0.40;;;2.30;99.90;;;;;;4945816;28;20039;-58
2023/01/15 14:35:45;;;;;;;0.20;0.20;;;2.30;99.90;;;;;;4893185;29;20051;-53
2023/01/15 14:38:17;;;;;;;0.22;0.20;;;2.30;99.90;;;;;;4918194;28;20564;-52